Aviation Digital Data Service (ADDS)

Output produced by METARs form (0658 UTC 19 February 2019)
found at http://www.aviationweather.gov/metar/data/
 
METAR text: RJNS 190600Z 35003KT 330V030 9999 -RA FEW000 SCT030 BKN040 09/09 Q1020
Conditions at: RJNS (SHIZOUKA , JP) observed 0600 UTC 19 February 2019
Temperature: 9.0°C (48°F)
Dewpoint: 9.0°C (48°F) [RH = 100%]
Pressure (altimeter): 30.12 inches Hg (1020.0 mb)
Winds: from the N (350 degrees) at 3 MPH (3 knots; 1.5 m/s)
Visibility: 6 or more miles (10+ km)
Ceiling: 4000 feet AGL
Clouds: few clouds at 0 feet AGL
scattered clouds at 3000 feet AGL
broken clouds at 4000 feet AGL
Weather: -RA  (light rain)

METAR text: RJNS 190500Z 36003KT 340V040 9999 R30/1900U -RA FEW000 BKN045 BKN050 09/09 Q1021
Conditions at: RJNS (SHIZOUKA , JP) observed 0500 UTC 19 February 2019
Temperature: 9.0°C (48°F)
Dewpoint: 9.0°C (48°F) [RH = 100%]
Pressure (altimeter): 30.15 inches Hg (1021.0 mb)
Winds: from the N (360 degrees) at 3 MPH (3 knots; 1.5 m/s)
Visibility: 6 or more miles (10+ km)
Ceiling: 4500 feet AGL
Clouds: few clouds at 0 feet AGL
broken clouds at 4500 feet AGL
broken clouds at 5000 feet AGL
Weather: -RA  (light rain)

METAR text: RJNS 190400Z 34004KT 310V020 9999 -RA FEW001 SCT035 BKN045 09/09 Q1022
Conditions at: RJNS (SHIZOUKA , JP) observed 0400 UTC 19 February 2019
Temperature: 9.0°C (48°F)
Dewpoint: 9.0°C (48°F) [RH = 100%]
Pressure (altimeter): 30.18 inches Hg (1022.0 mb)
Winds: from the NNW (340 degrees) at 5 MPH (4 knots; 2.1 m/s)
Visibility: 6 or more miles (10+ km)
Ceiling: 4500 feet AGL
Clouds: few clouds at 100 feet AGL
scattered clouds at 3500 feet AGL
broken clouds at 4500 feet AGL
Weather: -RA  (light rain)

METAR text: RJNS 190300Z 34005KT 9999 -RA FEW002 SCT035 BKN040 08/08 Q1023
Conditions at: RJNS (SHIZOUKA , JP) observed 0300 UTC 19 February 2019
Temperature: 8.0°C (46°F)
Dewpoint: 8.0°C (46°F) [RH = 100%]
Pressure (altimeter): 30.21 inches Hg (1023.0 mb)
Winds: from the NNW (340 degrees) at 6 MPH (5 knots; 2.6 m/s)
Visibility: 6 or more miles (10+ km)
Ceiling: 4000 feet AGL
Clouds: few clouds at 200 feet AGL
scattered clouds at 3500 feet AGL
broken clouds at 4000 feet AGL
Weather: -RA  (light rain)

METAR text: RJNS 190200Z 34004KT 9999 -RA FEW002 SCT025 BKN030 08/06 Q1024
Conditions at: RJNS (SHIZOUKA , JP) observed 0200 UTC 19 February 2019
Temperature: 8.0°C (46°F)
Dewpoint: 6.0°C (43°F) [RH = 87%]
Pressure (altimeter): 30.24 inches Hg (1024.0 mb)
Winds: from the NNW (340 degrees) at 5 MPH (4 knots; 2.1 m/s)
Visibility: 6 or more miles (10+ km)
Ceiling: 3000 feet AGL
Clouds: few clouds at 200 feet AGL
scattered clouds at 2500 feet AGL
broken clouds at 3000 feet AGL
Weather: -RA  (light rain)

METAR text: RJNS 190100Z 35003KT 310V030 9999 -RA FEW015 BKN025 BKN045 09/03 Q1025
Conditions at: RJNS (SHIZOUKA , JP) observed 0100 UTC 19 February 2019
Temperature: 9.0°C (48°F)
Dewpoint: 3.0°C (37°F) [RH = 66%]
Pressure (altimeter): 30.27 inches Hg (1025.0 mb)
Winds: from the N (350 degrees) at 3 MPH (3 knots; 1.5 m/s)
Visibility: 6 or more miles (10+ km)
Ceiling: 2500 feet AGL
Clouds: few clouds at 1500 feet AGL
broken clouds at 2500 feet AGL
broken clouds at 4500 feet AGL
Weather: -RA  (light rain)

METAR text: RJNS 190000Z 35003KT 310V020 9999 -RA FEW020 SCT025 BKN040 09/02 Q1025
Conditions at: RJNS (SHIZOUKA , JP) observed 0000 UTC 19 February 2019
Temperature: 9.0°C (48°F)
Dewpoint: 2.0°C (36°F) [RH = 61%]
Pressure (altimeter): 30.27 inches Hg (1025.0 mb)
Winds: from the N (350 degrees) at 3 MPH (3 knots; 1.5 m/s)
Visibility: 6 or more miles (10+ km)
Ceiling: 4000 feet AGL
Clouds: few clouds at 2000 feet AGL
scattered clouds at 2500 feet AGL
broken clouds at 4000 feet AGL
Weather: -RA  (light rain)

METAR text: RJNS 182300Z 34003KT 9999 -RA FEW030 SCT040 BKN060 08/02 Q1026
Conditions at: RJNS (SHIZOUKA , JP) observed 2300 UTC 18 February 2019
Temperature: 8.0°C (46°F)
Dewpoint: 2.0°C (36°F) [RH = 66%]
Pressure (altimeter): 30.30 inches Hg (1026.0 mb)
Winds: from the NNW (340 degrees) at 3 MPH (3 knots; 1.5 m/s)
Visibility: 6 or more miles (10+ km)
Ceiling: 6000 feet AGL
Clouds: few clouds at 3000 feet AGL
scattered clouds at 4000 feet AGL
broken clouds at 6000 feet AGL
Weather: -RA  (light rain)

METAR text: RJNS 182230Z 33004KT 9999 -RA FEW030 BKN040 BKN050 08/01 Q1026
Conditions at: RJNS (SHIZOUKA , JP) observed 2230 UTC 18 February 2019
Temperature: 8.0°C (46°F)
Dewpoint: 1.0°C (34°F) [RH = 61%]
Pressure (altimeter): 30.30 inches Hg (1026.0 mb)
Winds: from the NNW (330 degrees) at 5 MPH (4 knots; 2.1 m/s)
Visibility: 6 or more miles (10+ km)
Ceiling: 4000 feet AGL
Clouds: few clouds at 3000 feet AGL
broken clouds at 4000 feet AGL
broken clouds at 5000 feet AGL
Weather: -RA  (light rain)

METAR text: RJNS 181200Z 31005KT 9999 FEW025 07/00 Q1026
Conditions at: RJNS (SHIZOUKA , JP) observed 1200 UTC 18 February 2019
Temperature: 7.0°C (45°F)
Dewpoint: 0.0°C (32°F) [RH = 61%]
Pressure (altimeter): 30.30 inches Hg (1026.0 mb)
Winds: from the NW (310 degrees) at 6 MPH (5 knots; 2.6 m/s)
Visibility: 6 or more miles (10+ km)
Ceiling: at least 12,000 feet AGL
Clouds: few clouds at 2500 feet AGL
Weather: no significant weather observed at this time

METAR text: RJNS 181100Z 31004KT 9999 FEW025 SCT/// 07/01 Q1025
Conditions at: RJNS (SHIZOUKA , JP) observed 1100 UTC 18 February 2019
Temperature: 7.0°C (45°F)
Dewpoint: 1.0°C (34°F) [RH = 66%]
Pressure (altimeter): 30.27 inches Hg (1025.0 mb)
Winds: from the NW (310 degrees) at 5 MPH (4 knots; 2.1 m/s)
Visibility: 6 or more miles (10+ km)
Ceiling: at least 12,000 feet AGL
Clouds: few clouds at 2500 feet AGL
Weather: no significant weather observed at this time

METAR text: RJNS 181000Z 22004KT 9999 FEW025 BKN/// 10/02 Q1025
Conditions at: RJNS (SHIZOUKA , JP) observed 1000 UTC 18 February 2019
Temperature: 10.0°C (50°F)
Dewpoint: 2.0°C (36°F) [RH = 57%]
Pressure (altimeter): 30.27 inches Hg (1025.0 mb)
Winds: from the SW (220 degrees) at 5 MPH (4 knots; 2.1 m/s)
Visibility: 6 or more miles (10+ km)
Ceiling: at least 12,000 feet AGL
Clouds: few clouds at 2500 feet AGL
Weather: no significant weather observed at this time

METAR text: RJNS 180900Z 23004KT 9999 FEW025 10/03 Q1024
Conditions at: RJNS (SHIZOUKA , JP) observed 0900 UTC 18 February 2019
Temperature: 10.0°C (50°F)
Dewpoint: 3.0°C (37°F) [RH = 62%]
Pressure (altimeter): 30.24 inches Hg (1024.0 mb)
Winds: from the SW (230 degrees) at 5 MPH (4 knots; 2.1 m/s)
Visibility: 6 or more miles (10+ km)
Ceiling: at least 12,000 feet AGL
Clouds: few clouds at 2500 feet AGL
Weather: no significant weather observed at this time

METAR text: RJNS 180800Z 20005KT 170V230 9999 FEW025 11/02 Q1023
Conditions at: RJNS (SHIZOUKA , JP) observed 0800 UTC 18 February 2019
Temperature: 11.0°C (52°F)
Dewpoint: 2.0°C (36°F) [RH = 54%]
Pressure (altimeter): 30.21 inches Hg (1023.0 mb)
Winds: from the SSW (200 degrees) at 6 MPH (5 knots; 2.6 m/s)
Visibility: 6 or more miles (10+ km)
Ceiling: at least 12,000 feet AGL
Clouds: few clouds at 2500 feet AGL
Weather: no significant weather observed at this time

METAR text: RJNS 180700Z 17008KT 9999 FEW025 11/03 Q1023
Conditions at: RJNS (SHIZOUKA , JP) observed 0700 UTC 18 February 2019
Temperature: 11.0°C (52°F)
Dewpoint: 3.0°C (37°F) [RH = 58%]
Pressure (altimeter): 30.21 inches Hg (1023.0 mb)
Winds: from the S (170 degrees) at 9 MPH (8 knots; 4.1 m/s)
Visibility: 6 or more miles (10+ km)
Ceiling: at least 12,000 feet AGL
Clouds: few clouds at 2500 feet AGL
Weather: no significant weather observed at this time

METAR text: RJNS 180600Z 16007KT 120V200 9999 FEW025 12/02 Q1022
Conditions at: RJNS (SHIZOUKA , JP) observed 0600 UTC 18 February 2019
Temperature: 12.0°C (54°F)
Dewpoint: 2.0°C (36°F) [RH = 50%]
Pressure (altimeter): 30.18 inches Hg (1022.0 mb)
Winds: from the SSE (160 degrees) at 8 MPH (7 knots; 3.6 m/s)
Visibility: 6 or more miles (10+ km)
Ceiling: at least 12,000 feet AGL
Clouds: few clouds at 2500 feet AGL
Weather: no significant weather observed at this time

METAR text: RJNS 180500Z 14006KT 090V210 9999 FEW025 BKN/// 12/01 Q1022
Conditions at: RJNS (SHIZOUKA , JP) observed 0500 UTC 18 February 2019
Temperature: 12.0°C (54°F)
Dewpoint: 1.0°C (34°F) [RH = 47%]
Pressure (altimeter): 30.18 inches Hg (1022.0 mb)
Winds: from the SE (140 degrees) at 7 MPH (6 knots; 3.1 m/s)
Visibility: 6 or more miles (10+ km)
Ceiling: at least 12,000 feet AGL
Clouds: few clouds at 2500 feet AGL
Weather: no significant weather observed at this time

METAR text: RJNS 180400Z 14003KT 060V210 9999 FEW025 BKN/// 12/01 Q1022
Conditions at: RJNS (SHIZOUKA , JP) observed 0400 UTC 18 February 2019
Temperature: 12.0°C (54°F)
Dewpoint: 1.0°C (34°F) [RH = 47%]
Pressure (altimeter): 30.18 inches Hg (1022.0 mb)
Winds: from the SE (140 degrees) at 3 MPH (3 knots; 1.5 m/s)
Visibility: 6 or more miles (10+ km)
Ceiling: at least 12,000 feet AGL
Clouds: few clouds at 2500 feet AGL
Weather: no significant weather observed at this time

METAR text: RJNS 180300Z VRB04KT 9999 FEW025 SCT035 BKN/// 12/01 Q1023
Conditions at: RJNS (SHIZOUKA , JP) observed 0300 UTC 18 February 2019
Temperature: 12.0°C (54°F)
Dewpoint: 1.0°C (34°F) [RH = 47%]
Pressure (altimeter): 30.21 inches Hg (1023.0 mb)
Winds: variable direction winds at 5 MPH (4 knots; 2.1 m/s)
Visibility: 6 or more miles (10+ km)
Ceiling: at least 12,000 feet AGL
Clouds: few clouds at 2500 feet AGL
scattered clouds at 3500 feet AGL
Weather: no significant weather observed at this time

METAR text: RJNS 180200Z VRB04KT 9999 FEW025 11/01 Q1023
Conditions at: RJNS (SHIZOUKA , JP) observed 0200 UTC 18 February 2019
Temperature: 11.0°C (52°F)
Dewpoint: 1.0°C (34°F) [RH = 50%]
Pressure (altimeter): 30.21 inches Hg (1023.0 mb)
Winds: variable direction winds at 5 MPH (4 knots; 2.1 m/s)
Visibility: 6 or more miles (10+ km)
Ceiling: at least 12,000 feet AGL
Clouds: few clouds at 2500 feet AGL
Weather: no significant weather observed at this time

METAR text: RJNS 180100Z 03004KT 290V090 9999 FEW020 09/M00 Q1023
Conditions at: RJNS (SHIZOUKA , JP) observed 0100 UTC 18 February 2019
Temperature: 9.0°C (48°F)
Dewpoint: 0.0°C (32°F) [RH = 53%]
Pressure (altimeter): 30.21 inches Hg (1023.0 mb)
Winds: from the NNE (30 degrees) at 5 MPH (4 knots; 2.1 m/s)
Visibility: 6 or more miles (10+ km)
Ceiling: at least 12,000 feet AGL
Clouds: few clouds at 2000 feet AGL
Weather: no significant weather observed at this time

METAR text: RJNS 180000Z VRB02KT 9999 FEW020 SCT025 08/M03 Q1023
Conditions at: RJNS (SHIZOUKA , JP) observed 0000 UTC 18 February 2019
Temperature: 8.0°C (46°F)
Dewpoint: -3.0°C (27°F) [RH = 46%]
Pressure (altimeter): 30.21 inches Hg (1023.0 mb)
Winds: variable direction winds at 2 MPH (2 knots; 1.0 m/s)
Visibility: 6 or more miles (10+ km)
Ceiling: at least 12,000 feet AGL
Clouds: few clouds at 2000 feet AGL
scattered clouds at 2500 feet AGL
Weather: no significant weather observed at this time

METAR text: RJNS 172300Z 33004KT 290V010 9999 FEW030 05/M04 Q1022
Conditions at: RJNS (SHIZOUKA , JP) observed 2300 UTC 17 February 2019
Temperature: 5.0°C (41°F)
Dewpoint: -4.0°C (25°F) [RH = 52%]
Pressure (altimeter): 30.18 inches Hg (1022.0 mb)
Winds: from the NNW (330 degrees) at 5 MPH (4 knots; 2.1 m/s)
Visibility: 6 or more miles (10+ km)
Ceiling: at least 12,000 feet AGL
Clouds: few clouds at 3000 feet AGL
Weather: no significant weather observed at this time

METAR text: RJNS 172230Z 32005KT 9999 FEW030 04/M04 Q1022
Conditions at: RJNS (SHIZOUKA , JP) observed 2230 UTC 17 February 2019
Temperature: 4.0°C (39°F)
Dewpoint: -4.0°C (25°F) [RH = 56%]
Pressure (altimeter): 30.18 inches Hg (1022.0 mb)
Winds: from the NW (320 degrees) at 6 MPH (5 knots; 2.6 m/s)
Visibility: 6 or more miles (10+ km)
Ceiling: at least 12,000 feet AGL
Clouds: few clouds at 3000 feet AGL
Weather: no significant weather observed at this time

Forecast for: RJNS (SHIZOUKA , JP)
Text: TAF RJNS 190508Z 1906/2012 34004KT 4000 -SHRA BR FEW005 BKN008
Forecast period: 0600 to 1300 UTC 19 February 2019
Forecast type: FROM: standard forecast or significant change
Winds: from the NNW (340 degrees) at 5 MPH (4 knots; 2.1 m/s)
Visibility: 2.49 miles (4.01 km)
Ceiling: 800 feet AGL
Clouds: few clouds at 500 feet AGL
broken clouds at 800 feet AGL
Weather: -SHRA BR  (light rain showers, mist)
Text: TEMPO 1907/1914 1500 SHRA BR FEW003 BKN005
Forecast period: 0700 to 1400 UTC 19 February 2019
Forecast type: TEMPORARY: The following changes expected for less than half the time period
Visibility: 0.93 miles (1.50 km)
Ceiling: 500 feet AGL
Clouds: few clouds at 300 feet AGL
broken clouds at 500 feet AGL
Weather: SHRA BR  (rain showers, mist)
Text: BECMG 1913/1915 26018KT 9999 NSW FEW020
Forecast period: 1300 UTC 19 February 2019 to 1200 UTC 20 February 2019
Forecast type: BECOMING: Conditions expected to become as follows by 1500 UTC 19 February 2019
Winds: from the W (260 degrees) at 21 MPH (18 knots; 9.3 m/s)
Visibility: 6 or more miles 10+ km)
Ceiling: at least 12,000 feet AGL
Clouds: few clouds at 2000 feet AGL
Weather: NSW  (no significant weather)
Text: TEMPO 2000/2009 27028G38KT
Forecast period: 0000 to 0900 UTC 20 February 2019
Forecast type: TEMPORARY: The following changes expected for less than half the time period
Winds: from the W (270 degrees) at 32 MPH (28 knots; 14.4 m/s)
gusting to 44 MPH (38 knots; 19.5 m/s)
Visibility: missing
Ceiling: unknown
Clouds: missing
Weather: no significant weather forecast for this period